Time;durP1;ratioP1;P1;durP2;ratioP2;P2;SDS_P1;SDS_P2;PMS_P1;PMS_P2;Temp;Humidity;BMP_temperature;BMP_pressure;BME280_temperature;BME280_humidity;BME280_pressure;Samples;Min_cycle;Max_cycle;Signal;HPM_P1;HPM_P2
2022/04/01 00:01:01;;;;;;;5.18;1.67;;;0.30;81.70;;;;;;4948155;29;20811;-67
2022/04/01 00:03:29;;;;;;;4.20;1.25;;;0.50;81.80;;;;;;4948179;29;20062;-67
2022/04/01 00:05:57;;;;;;;4.63;1.05;;;0.50;81.70;;;;;;4946863;28;20501;-67
2022/04/01 00:08:24;;;;;;;4.32;1.35;;;0.50;81.40;;;;;;4946787;28;20047;-68
2022/04/01 00:10:52;;;;;;;4.47;1.30;;;0.60;81.30;;;;;;4948078;28;20605;-67
2022/04/01 00:13:21;;;;;;;3.60;1.13;;;0.60;81.30;;;;;;4948797;29;20056;-68
2022/04/01 00:15:48;;;;;;;9.40;1.42;;;0.70;81.20;;;;;;4949497;29;20047;-67
2022/04/01 00:18:16;;;;;;;5.15;1.38;;;0.70;81.10;;;;;;4946709;29;20063;-67
2022/04/01 00:20:44;;;;;;;7.18;1.20;;;0.60;80.90;;;;;;4932680;29;20573;-67
2022/04/01 00:23:12;;;;;;;3.03;1.17;;;0.60;80.90;;;;;;4942698;28;20058;-67
2022/04/01 00:25:41;;;;;;;4.72;1.42;;;0.50;81.00;;;;;;4946160;28;20051;-67
2022/04/01 00:28:10;;;;;;;6.25;1.27;;;0.50;81.00;;;;;;4948604;28;20047;-67
2022/04/01 00:30:39;;;;;;;9.45;1.30;;;0.50;81.00;;;;;;4947900;29;20055;-67
2022/04/01 00:33:14;;;;;;;5.93;1.50;;;0.50;81.00;;;;;;4949211;28;20074;-67
2022/04/01 00:35:43;;;;;;;4.10;1.55;;;0.40;81.10;;;;;;4949037;28;20051;-68
2022/04/01 00:38:11;;;;;;;3.08;1.52;;;0.30;81.10;;;;;;4947508;29;20066;-67
2022/04/01 00:40:39;;;;;;;4.15;1.25;;;0.30;81.20;;;;;;4960731;28;20048;-67
2022/04/01 00:43:07;;;;;;;5.60;1.60;;;0.20;81.30;;;;;;4948985;28;20377;-67
2022/04/01 00:45:35;;;;;;;5.68;1.88;;;0.20;81.60;;;;;;4949435;29;20047;-67
2022/04/01 00:48:03;;;;;;;4.70;1.85;;;0.20;81.70;;;;;;4943806;28;20062;-67
2022/04/01 00:50:32;;;;;;;4.85;1.65;;;0.20;81.70;;;;;;4960761;28;20062;-67
2022/04/01 00:53:01;;;;;;;4.47;2.13;;;0.20;81.80;;;;;;4945526;29;20687;-67
2022/04/01 00:55:29;;;;;;;6.22;2.10;;;0.30;81.80;;;;;;4931640;29;20051;-67
2022/04/01 00:57:56;;;;;;;3.75;1.88;;;0.30;81.70;;;;;;4942099;29;20048;-67
2022/04/01 01:00:25;;;;;;;6.28;1.88;;;0.30;81.60;;;;;;4947506;28;20059;-67
2022/04/01 01:02:54;;;;;;;6.13;1.88;;;0.30;81.60;;;;;;4949937;28;20047;-67
2022/04/01 01:05:23;;;;;;;5.55;2.22;;;0.20;81.60;;;;;;4945297;28;20125;-67
2022/04/01 01:07:51;;;;;;;5.35;1.95;;;0.20;81.70;;;;;;4964913;28;20051;-67
2022/04/01 01:10:19;;;;;;;3.78;1.70;;;0.20;81.70;;;;;;4947859;28;20070;-67
2022/04/01 01:12:47;;;;;;;8.13;1.85;;;0.20;81.90;;;;;;4957939;28;20051;-68
2022/04/01 01:15:18;;;;;;;8.10;1.80;;;0.20;81.80;;;;;;4944174;28;20044;-67
2022/04/01 01:17:47;;;;;;;3.97;1.60;;;0.10;81.90;;;;;;4949562;28;20043;-67
2022/04/01 01:20:18;;;;;;;5.28;1.30;;;0.10;82.00;;;;;;4950669;28;20047;-67
2022/04/01 01:22:49;;;;;;;4.00;1.23;;;0.10;82.00;;;;;;4929639;29;20556;-67
2022/04/01 01:25:17;;;;;;;4.63;1.38;;;0.10;82.00;;;;;;4947162;28;20058;-67
2022/04/01 01:27:45;;;;;;;6.95;1.30;;;0.10;82.00;;;;;;4949844;28;20066;-67
2022/04/01 01:30:13;;;;;;;2.53;1.20;;;0.10;81.90;;;;;;4948806;28;20043;-67
2022/04/01 01:32:41;;;;;;;3.55;1.40;;;0.00;82.00;;;;;;4962090;28;20052;-67
2022/04/01 01:35:09;;;;;;;4.38;1.40;;;0.10;82.10;;;;;;4950499;28;20046;-67
2022/04/01 01:37:38;;;;;;;6.05;1.10;;;0.20;82.20;;;;;;4949085;29;20043;-67
2022/04/01 01:40:08;;;;;;;9.43;1.25;;;0.30;82.10;;;;;;4952635;28;20066;-67
2022/04/01 01:42:36;;;;;;;5.07;1.40;;;0.40;81.90;;;;;;4966697;28;20055;-67
2022/04/01 01:45:05;;;;;;;6.05;1.67;;;0.50;81.70;;;;;;4950423;28;20050;-67
2022/04/01 01:47:32;;;;;;;6.65;1.25;;;0.50;81.60;;;;;;4951811;28;20047;-67
2022/04/01 01:55:32;;;;;;;4.57;1.27;;;0.70;81.40;;;;;;4949667;28;21443;-67
2022/04/01 01:58:03;;;;;;;4.75;1.40;;;0.70;81.30;;;;;;4951959;28;20071;-67
2022/04/01 02:00:32;;;;;;;7.05;1.20;;;0.70;81.20;;;;;;4950391;28;20043;-67
2022/04/01 02:02:59;;;;;;;2.70;1.08;;;0.70;81.10;;;;;;4950137;28;20043;-67
2022/04/01 02:05:27;;;;;;;9.57;1.50;;;0.70;81.10;;;;;;4950641;28;20051;-67
2022/04/01 02:07:56;;;;;;;3.92;1.30;;;0.70;81.20;;;;;;4953631;28;20055;-67
2022/04/01 02:10:24;;;;;;;3.03;1.20;;;0.70;81.20;;;;;;4948046;28;20047;-67
2022/04/01 02:12:51;;;;;;;5.85;1.35;;;0.70;81.20;;;;;;4947370;28;20524;-67
2022/04/01 02:15:20;;;;;;;3.70;1.20;;;0.70;81.10;;;;;;4949941;28;20404;-67
2022/04/01 02:17:49;;;;;;;4.50;1.50;;;0.70;81.00;;;;;;4951998;28;20519;-67
2022/04/01 02:20:17;;;;;;;5.05;1.15;;;0.60;81.00;;;;;;4951956;28;20062;-67
2022/04/01 02:22:45;;;;;;;3.88;1.40;;;0.60;81.20;;;;;;4946907;28;20078;-67
2022/04/01 02:25:16;;;;;;;2.58;1.17;;;0.50;81.30;;;;;;4948136;28;20047;-67
2022/04/01 02:27:44;;;;;;;8.95;1.48;;;0.60;81.30;;;;;;4965529;28;20059;-66
2022/04/01 02:30:11;;;;;;;6.00;1.67;;;0.50;81.20;;;;;;4946187;28;20059;-67
2022/04/01 02:32:48;;;;;;;3.00;0.93;;;0.50;81.30;;;;;;4952358;28;20035;-66
2022/04/01 02:35:32;;;;;;;6.70;1.15;;;0.40;81.40;;;;;;4965231;28;20051;-66
2022/04/01 02:38:01;;;;;;;2.95;0.98;;;0.30;81.70;;;;;;4949625;29;20051;-66
2022/04/01 02:40:30;;;;;;;6.45;1.15;;;0.30;82.00;;;;;;4949692;28;20076;-66
2022/04/01 02:42:59;;;;;;;3.88;1.30;;;0.30;82.00;;;;;;4949476;28;20058;-66
2022/04/01 02:45:27;;;;;;;2.60;1.30;;;0.40;81.90;;;;;;4951769;28;20072;-66
2022/04/01 02:47:55;;;;;;;4.57;1.10;;;0.40;81.80;;;;;;4949862;28;20040;-66
2022/04/01 02:50:26;;;;;;;4.40;1.60;;;0.50;81.80;;;;;;4960789;28;20043;-67
2022/04/01 02:52:53;;;;;;;4.13;1.58;;;0.50;81.60;;;;;;4949025;28;20044;-66
2022/04/01 02:55:21;;;;;;;3.05;1.10;;;0.50;81.60;;;;;;4948417;28;20055;-67
2022/04/01 02:57:50;;;;;;;6.60;1.42;;;0.50;81.60;;;;;;4964353;28;20044;-66
2022/04/01 03:00:21;;;;;;;5.80;1.33;;;0.40;81.70;;;;;;4951875;28;20375;-66
2022/04/01 03:03:07;;;;;;;3.35;1.10;;;0.30;81.80;;;;;;4950142;28;20036;-66
2022/04/01 03:05:37;;;;;;;4.97;1.45;;;0.20;82.10;;;;;;4965888;28;20047;-66
2022/04/01 03:08:07;;;;;;;4.63;0.93;;;0.20;82.20;;;;;;4951459;28;20066;-66
2022/04/01 03:10:38;;;;;;;3.75;1.20;;;0.20;82.40;;;;;;4966504;28;20051;-66
2022/04/01 03:13:07;;;;;;;3.63;1.15;;;0.20;82.30;;;;;;4964581;28;20039;-66
2022/04/01 03:16:02;;;;;;;2.70;1.02;;;0.20;82.50;;;;;;4931970;28;20070;-67
2022/04/01 03:18:43;;;;;;;5.47;1.45;;;0.20;82.60;;;;;;4946883;28;20047;-66
2022/04/01 03:21:11;;;;;;;4.18;1.60;;;0.10;82.60;;;;;;4935958;29;20062;-66
2022/04/01 03:23:47;;;;;;;3.17;1.13;;;0.10;82.70;;;;;;4934604;29;20059;-67
2022/04/01 03:26:23;;;;;;;4.53;1.48;;;0.00;82.70;;;;;;4963481;28;20066;-66
2022/04/01 03:29:04;;;;;;;2.30;1.13;;;0.00;82.70;;;;;;4949845;28;20147;-66
2022/04/01 03:31:32;;;;;;;3.38;1.23;;;0.00;82.90;;;;;;4961954;28;20489;-67
2022/04/01 03:34:02;;;;;;;5.25;1.45;;;0.00;82.90;;;;;;4965579;28;20047;-66
2022/04/01 03:36:31;;;;;;;4.53;1.45;;;-0.10;83.00;;;;;;4961863;28;20445;-68
2022/04/01 03:38:59;;;;;;;3.20;1.13;;;-0.10;83.10;;;;;;4946781;28;20059;-66
2022/04/01 03:41:44;;;;;;;5.22;1.67;;;-0.20;83.30;;;;;;4948299;29;20054;-67
2022/04/01 03:44:11;;;;;;;5.35;1.20;;;-0.20;83.40;;;;;;4946565;28;20058;-66
2022/04/01 03:46:49;;;;;;;7.45;1.75;;;-0.20;83.40;;;;;;4942847;28;20493;-66
2022/04/01 03:49:22;;;;;;;4.70;1.40;;;-0.30;83.40;;;;;;4930429;28;20051;-66
2022/04/01 03:51:54;;;;;;;5.60;1.45;;;-0.40;83.60;;;;;;4946328;28;20050;-66
2022/04/01 03:54:24;;;;;;;5.70;1.70;;;-0.50;83.70;;;;;;4945945;28;20493;-67
2022/04/01 03:57:32;;;;;;;6.00;1.75;;;-0.50;83.80;;;;;;4946117;28;20119;-66
2022/04/01 04:00:20;;;;;;;6.47;1.40;;;-0.40;83.90;;;;;;4950274;28;20055;-66
2022/04/01 04:02:51;;;;;;;5.43;1.73;;;-0.30;84.10;;;;;;4950773;28;20413;-66
2022/04/01 04:05:26;;;;;;;6.38;1.80;;;-0.20;84.10;;;;;;4952700;29;20489;-66
2022/04/01 04:07:55;;;;;;;6.15;1.40;;;-0.10;84.00;;;;;;4953273;29;20058;-66
2022/04/01 04:10:28;;;;;;;3.15;1.20;;;0.00;83.90;;;;;;4941451;29;20055;-66
2022/04/01 04:13:16;;;;;;;3.42;1.25;;;0.00;83.80;;;;;;4935430;29;20059;-67
2022/04/01 04:16:04;;;;;;;7.32;1.80;;;0.00;83.60;;;;;;4934177;29;20394;-67
2022/04/01 04:18:41;;;;;;;4.93;1.63;;;0.00;83.60;;;;;;4949618;29;20074;-66
2022/04/01 04:21:10;;;;;;;4.57;1.02;;;0.00;83.50;;;;;;4949654;28;20043;-67
2022/04/01 04:23:44;;;;;;;6.10;1.33;;;0.00;83.50;;;;;;4946964;28;20047;-66
2022/04/01 04:26:32;;;;;;;4.88;1.45;;;0.00;83.60;;;;;;4961086;28;20040;-66
2022/04/01 04:29:10;;;;;;;2.58;1.25;;;0.00;83.60;;;;;;4944308;28;20482;-66
2022/04/01 04:32:03;;;;;;;3.95;1.65;;;-0.10;83.90;;;;;;4964456;28;20058;-66
2022/04/01 04:34:38;;;;;;;4.45;1.63;;;-0.10;83.90;;;;;;4964268;28;20043;-67
2022/04/01 04:37:10;;;;;;;4.75;1.40;;;-0.20;83.90;;;;;;4963318;28;20050;-67
2022/04/01 04:39:49;;;;;;;2.38;1.23;;;-0.20;84.10;;;;;;4963120;28;20071;-66
2022/04/01 04:42:21;;;;;;;4.55;1.42;;;-0.20;84.10;;;;;;4948648;28;20058;-66
2022/04/01 04:44:49;;;;;;;3.35;1.30;;;-0.30;84.20;;;;;;4947264;28;20047;-66
2022/04/01 04:47:26;;;;;;;4.93;1.70;;;-0.30;84.30;;;;;;4949046;28;20509;-66
2022/04/01 04:49:58;;;;;;;11.05;1.60;;;-0.30;84.40;;;;;;4951175;28;20116;-66
2022/04/01 04:52:32;;;;;;;4.13;1.42;;;-0.40;84.30;;;;;;4947488;28;20369;-66
2022/04/01 04:55:06;;;;;;;4.15;1.40;;;-0.40;84.40;;;;;;4948307;28;20051;-66
2022/04/01 04:57:51;;;;;;;4.75;1.55;;;-0.40;84.60;;;;;;4948563;28;20055;-66
2022/04/01 05:00:20;;;;;;;4.22;1.30;;;-0.40;84.70;;;;;;4947498;28;20386;-66
2022/04/01 05:03:35;;;;;;;3.70;1.42;;;-0.40;84.60;;;;;;4940830;28;20070;-66
2022/04/01 05:06:07;;;;;;;;;;;-0.50;84.70;;;;;;4964306;28;20508;-66
2022/04/01 05:09:00;;;;;;;6.68;1.40;;;-0.40;84.80;;;;;;4950076;28;19933;-67
2022/04/01 05:12:08;;;;;;;5.25;1.48;;;-0.50;84.80;;;;;;4953317;28;20055;-66
2022/04/01 05:14:58;;;;;;;3.67;1.60;;;-0.40;84.80;;;;;;4939779;28;20055;-67
2022/04/01 05:17:51;;;;;;;6.10;1.20;;;-0.50;84.60;;;;;;4953629;28;20058;-66
2022/04/01 05:20:28;;;;;;;4.93;1.38;;;-0.40;84.80;;;;;;4945683;28;20043;-66
2022/04/01 05:23:15;;;;;;;8.65;1.60;;;-0.40;85.00;;;;;;4947752;28;20047;-66
2022/04/01 05:25:55;;;;;;;6.00;1.65;;;-0.40;85.10;;;;;;4950000;28;20104;-66
2022/04/01 05:29:02;;;;;;;4.95;1.85;;;-0.30;85.10;;;;;;4951527;28;20070;-66
2022/04/01 05:31:37;;;;;;;4.57;1.65;;;-0.30;84.90;;;;;;4948913;28;20043;-67
2022/04/01 05:34:20;;;;;;;4.22;1.70;;;-0.40;84.80;;;;;;4966964;28;20043;-66
2022/04/01 05:36:53;;;;;;;11.13;2.13;;;-0.30;84.90;;;;;;4931695;29;20052;-66
2022/04/01 05:39:22;;;;;;;6.07;1.55;;;-0.40;85.10;;;;;;4941255;29;20036;-66
2022/04/01 05:41:57;;;;;;;7.93;1.90;;;-0.40;85.10;;;;;;4948866;28;20440;-66
2022/04/01 05:44:29;;;;;;;7.57;2.13;;;-0.40;85.00;;;;;;4963281;28;20689;-66
2022/04/01 05:46:58;;;;;;;4.97;1.70;;;-0.50;85.10;;;;;;4951029;28;20050;-66
2022/04/01 05:49:28;;;;;;;3.58;1.70;;;-0.50;85.10;;;;;;4930245;29;20512;-66
2022/04/01 05:51:57;;;;;;;8.82;2.30;;;-0.60;85.30;;;;;;4950006;28;20046;-67
2022/04/01 05:54:26;;;;;;;8.10;1.70;;;-0.60;85.40;;;;;;4951081;28;20422;-66
2022/04/01 05:56:55;;;;;;;3.88;2.05;;;-0.60;85.30;;;;;;4965781;28;20050;-66
2022/04/01 05:59:23;;;;;;;3.53;1.73;;;-0.50;85.40;;;;;;4949786;28;20043;-66
2022/04/01 06:02:19;;;;;;;5.65;2.20;;;-0.50;85.40;;;;;;4962075;28;20058;-66
2022/04/01 06:05:16;;;;;;;6.25;1.70;;;-0.50;85.50;;;;;;4950159;28;20092;-66
2022/04/01 06:07:58;;;;;;;5.57;1.80;;;-0.50;85.40;;;;;;4966784;28;20051;-67
2022/04/01 06:10:43;;;;;;;4.85;1.95;;;-0.60;85.30;;;;;;4943359;28;20058;-67
2022/04/01 06:14:00;;;;;;;3.65;2.03;;;-0.40;85.50;;;;;;4913076;29;20502;-66
2022/04/01 06:16:56;;;;;;;5.70;2.38;;;-0.30;85.50;;;;;;4919544;29;20047;-67
2022/04/01 06:19:43;;;;;;;7.95;2.20;;;-0.20;85.40;;;;;;4915831;29;20059;-66
2022/04/01 06:22:19;;;;;;;3.67;1.88;;;-0.20;85.20;;;;;;4912644;29;20480;-67
2022/04/01 06:25:18;;;;;;;7.68;1.83;;;-0.20;85.00;;;;;;4907039;29;20060;-66
2022/04/01 06:27:51;;;;;;;4.32;1.55;;;-0.10;85.00;;;;;;4913804;29;20211;-66
2022/04/01 06:30:22;;;;;;;7.22;1.70;;;-0.10;85.00;;;;;;4917586;29;20051;-67
2022/04/01 06:33:24;;;;;;;5.10;1.83;;;-0.10;85.00;;;;;;4911845;29;20059;-67
2022/04/01 06:36:40;;;;;;;5.32;2.03;;;-0.10;84.90;;;;;;4875209;29;20068;-67
2022/04/01 06:39:13;;;;;;;3.35;2.00;;;0.00;84.80;;;;;;4872976;29;20053;-67
2022/04/01 06:41:53;;;;;;;4.55;1.95;;;0.00;84.80;;;;;;4857800;29;20064;-67
2022/04/01 06:44:39;;;;;;;4.25;2.53;;;0.00;84.70;;;;;;4873181;29;20411;-67
2022/04/01 06:47:40;;;;;;;11.57;2.42;;;0.00;84.70;;;;;;4876006;29;20061;-67
2022/04/01 06:50:09;;;;;;;11.05;2.22;;;0.00;84.60;;;;;;4864236;29;20215;-67
2022/04/01 06:52:55;;;;;;;3.30;2.00;;;0.00;84.60;;;;;;4891305;29;20072;-68
2022/04/01 06:56:03;;;;;;;3.30;1.85;;;0.10;84.60;;;;;;4852288;29;20057;-66
2022/04/01 06:58:32;;;;;;;3.47;1.85;;;0.10;84.40;;;;;;4857129;29;20064;-67
2022/04/01 07:01:03;;;;;;;7.20;1.58;;;0.20;84.30;;;;;;4853026;29;20046;-67
2022/04/01 07:03:35;;;;;;;3.30;1.83;;;0.30;84.20;;;;;;4858630;29;20058;-67
2022/04/01 07:06:06;;;;;;;2.65;1.58;;;0.30;84.10;;;;;;4834111;29;20056;-66
2022/04/01 07:08:35;;;;;;;4.22;1.90;;;0.30;84.10;;;;;;4845398;29;20088;-67
2022/04/01 07:11:03;;;;;;;4.43;1.20;;;0.30;84.10;;;;;;4850791;29;20090;-67
2022/04/01 07:13:32;;;;;;;5.28;1.33;;;0.40;84.00;;;;;;4891271;29;20059;-68
2022/04/01 07:16:00;;;;;;;4.00;1.52;;;0.60;83.80;;;;;;4924808;29;20063;-67
2022/04/01 07:18:29;;;;;;;3.72;1.30;;;0.60;83.70;;;;;;4925807;29;20052;-67
2022/04/01 07:20:57;;;;;;;4.03;1.70;;;0.70;83.70;;;;;;4897940;29;20052;-67
2022/04/01 07:23:24;;;;;;;3.80;1.23;;;0.80;83.50;;;;;;4916744;29;20044;-67
2022/04/01 07:25:51;;;;;;;3.70;1.50;;;0.80;83.30;;;;;;4907061;29;20055;-67
2022/04/01 07:28:20;;;;;;;4.47;1.50;;;0.80;83.20;;;;;;4942351;28;20242;-67
2022/04/01 07:30:48;;;;;;;7.68;1.40;;;0.90;83.10;;;;;;4949199;29;20043;-67
2022/04/01 07:33:16;;;;;;;3.83;1.80;;;0.90;82.90;;;;;;4952078;28;20052;-67
2022/04/01 07:35:47;;;;;;;2.28;1.50;;;1.00;82.70;;;;;;4949087;28;20055;-66
2022/04/01 07:38:15;;;;;;;4.32;1.73;;;1.00;82.70;;;;;;4949843;28;20058;-67
2022/04/01 07:40:43;;;;;;;6.70;2.10;;;1.10;82.60;;;;;;4947997;28;20047;-66
2022/04/01 07:43:10;;;;;;;3.53;1.50;;;1.10;82.40;;;;;;4950609;28;20055;-67
2022/04/01 07:45:38;;;;;;;6.35;2.20;;;1.20;82.40;;;;;;4953994;28;20048;-68
2022/04/01 07:48:07;;;;;;;4.85;1.52;;;1.20;82.30;;;;;;4954765;29;20411;-67
2022/04/01 07:50:35;;;;;;;4.95;1.70;;;1.30;82.20;;;;;;4955028;29;20047;-67
2022/04/01 07:53:03;;;;;;;5.38;1.67;;;1.30;82.10;;;;;;4955120;29;20127;-67
2022/04/01 07:55:30;;;;;;;5.55;1.60;;;1.30;81.90;;;;;;4954793;29;20055;-67
2022/04/01 07:57:58;;;;;;;5.47;1.83;;;1.30;81.70;;;;;;4954740;29;20047;-67
2022/04/01 08:00:46;;;;;;;4.40;2.20;;;1.40;81.80;;;;;;4954386;28;20058;-68
2022/04/01 08:03:14;;;;;;;4.60;1.30;;;1.40;81.70;;;;;;4954572;29;20055;-67
2022/04/01 08:05:42;;;;;;;7.20;2.13;;;1.50;81.50;;;;;;4954268;29;20507;-68
2022/04/01 08:08:10;;;;;;;6.30;1.60;;;1.50;81.40;;;;;;4954464;28;20078;-68
2022/04/01 08:10:38;;;;;;;2.95;1.90;;;1.60;81.30;;;;;;4953061;29;20048;-68
2022/04/01 08:13:06;;;;;;;6.63;2.17;;;1.70;81.00;;;;;;4954265;29;20051;-67
2022/04/01 08:15:33;;;;;;;7.35;2.30;;;1.70;81.00;;;;;;4954253;29;20504;-67
2022/04/01 08:18:01;;;;;;;3.80;1.75;;;1.80;80.90;;;;;;4952815;29;20074;-66
2022/04/01 08:20:28;;;;;;;5.68;2.00;;;1.80;81.00;;;;;;4941421;29;20051;-68
2022/04/01 08:22:56;;;;;;;3.50;1.85;;;1.90;80.90;;;;;;4936649;29;20469;-67
2022/04/01 08:25:24;;;;;;;4.05;1.48;;;2.00;80.80;;;;;;4944894;29;20047;-68
2022/04/01 08:28:00;;;;;;;3.25;1.60;;;2.10;80.40;;;;;;4935348;29;20052;-68
2022/04/01 08:30:28;;;;;;;4.35;1.30;;;2.20;79.90;;;;;;4935913;29;20054;-68
2022/04/01 08:32:56;;;;;;;4.80;1.70;;;2.30;79.80;;;;;;4935296;29;20047;-68
2022/04/01 08:35:23;;;;;;;2.33;1.35;;;2.30;79.60;;;;;;4939059;29;20055;-68
2022/04/01 08:37:54;;;;;;;2.78;1.30;;;2.30;79.50;;;;;;4948115;29;20051;-67
2022/04/01 08:40:22;;;;;;;3.58;1.50;;;2.30;79.50;;;;;;4952480;28;20055;-68
2022/04/01 08:42:49;;;;;;;3.75;1.15;;;2.50;79.60;;;;;;4931869;29;20402;-68
2022/04/01 08:45:18;;;;;;;7.05;1.50;;;2.60;79.60;;;;;;4933016;29;20139;-67
2022/04/01 08:47:48;;;;;;;3.08;1.50;;;2.70;79.40;;;;;;4932479;29;20056;-67
2022/04/01 08:50:15;;;;;;;6.28;1.83;;;2.80;79.10;;;;;;4947801;29;20050;-67
2022/04/01 08:52:43;;;;;;;7.95;1.42;;;2.90;78.90;;;;;;4944330;29;20141;-67
2022/04/01 08:55:12;;;;;;;4.93;1.20;;;3.10;78.20;;;;;;4933038;29;20062;-67
2022/04/01 08:57:42;;;;;;;3.10;1.15;;;3.30;77.60;;;;;;4942784;29;20050;-67
2022/04/01 09:00:15;;;;;;;5.20;1.30;;;3.50;76.80;;;;;;4953924;29;20044;-67
2022/04/01 09:02:52;;;;;;;2.72;1.30;;;3.70;75.90;;;;;;4953509;28;20071;-68
2022/04/01 09:05:20;;;;;;;2.88;1.20;;;3.80;75.10;;;;;;4953920;28;20062;-67
2022/04/01 09:07:47;;;;;;;3.55;1.20;;;3.90;75.00;;;;;;4953209;28;20050;-67
2022/04/01 09:10:15;;;;;;;6.50;1.17;;;3.90;74.70;;;;;;4941827;28;20079;-67
2022/04/01 09:12:51;;;;;;;1.98;1.15;;;3.90;74.60;;;;;;4934897;29;20051;-67
2022/04/01 09:15:19;;;;;;;3.42;1.50;;;3.90;74.60;;;;;;4935061;29;20056;-67
2022/04/01 09:17:48;;;;;;;4.60;1.10;;;4.00;74.40;;;;;;4934840;29;20043;-68
2022/04/01 09:20:17;;;;;;;4.07;1.20;;;4.00;74.50;;;;;;4934740;29;20524;-67
2022/04/01 09:22:45;;;;;;;6.13;1.33;;;4.10;74.00;;;;;;4938975;29;20409;-67
2022/04/01 09:25:15;;;;;;;2.50;1.25;;;4.30;73.10;;;;;;4953158;29;20054;-67
2022/04/01 09:27:47;;;;;;;0.88;0.82;;;4.40;72.70;;;;;;4947722;29;20409;-68
2022/04/01 09:30:30;;;;;;;2.75;1.00;;;4.60;72.20;;;;;;4933529;29;20056;-67
2022/04/01 09:33:00;;;;;;;4.13;1.27;;;4.60;71.30;;;;;;4936601;29;20039;-72
2022/04/01 09:35:33;;;;;;;3.25;1.40;;;4.70;71.10;;;;;;4934533;29;20052;-67
2022/04/01 09:38:01;;;;;;;;;;;4.60;71.00;;;;;;4936737;29;20044;-67
2022/04/01 09:40:30;;;;;;;6.10;1.10;;;4.60;70.50;;;;;;4934584;29;20289;-68
2022/04/01 09:43:06;;;;;;;6.32;0.70;;;4.70;69.60;;;;;;4944830;29;20489;-68
2022/04/01 09:45:38;;;;;;;2.10;0.90;;;4.80;69.10;;;;;;4952585;29;20059;-67
2022/04/01 09:48:16;;;;;;;2.35;0.80;;;4.80;68.80;;;;;;4953973;29;20052;-67
2022/04/01 09:50:58;;;;;;;2.67;1.00;;;4.90;68.50;;;;;;4945175;29;20059;-67
2022/04/01 09:53:28;;;;;;;2.47;0.98;;;5.00;68.30;;;;;;4948265;29;20051;-67
2022/04/01 09:55:57;;;;;;;5.05;0.80;;;5.20;67.70;;;;;;4940397;29;20071;-67
2022/04/01 09:58:25;;;;;;;2.90;0.70;;;5.30;66.80;;;;;;4937987;29;20060;-67
2022/04/01 10:00:53;;;;;;;3.83;0.68;;;5.30;66.40;;;;;;4937772;29;20062;-67
2022/04/01 10:03:21;;;;;;;1.88;1.00;;;5.30;66.20;;;;;;4952000;29;20430;-67
2022/04/01 10:05:50;;;;;;;5.57;1.50;;;5.30;66.20;;;;;;4936857;29;20044;-66
2022/04/01 10:08:19;;;;;;;2.92;0.95;;;5.40;65.70;;;;;;4953345;29;20525;-66
2022/04/01 10:10:48;;;;;;;3.35;1.35;;;5.50;65.80;;;;;;4956501;28;20047;-67
2022/04/01 10:13:32;;;;;;;4.25;0.90;;;5.60;65.80;;;;;;4956977;29;20067;-67
2022/04/01 10:16:02;;;;;;;2.38;0.70;;;5.90;65.60;;;;;;4943652;29;20055;-67
2022/04/01 10:18:51;;;;;;;1.75;0.70;;;6.20;65.10;;;;;;4954212;29;20061;-68
2022/04/01 10:21:19;;;;;;;6.10;1.05;;;6.40;63.70;;;;;;4947964;29;20039;-69
2022/04/01 10:24:02;;;;;;;2.53;1.05;;;6.40;62.50;;;;;;4938823;29;20056;-67
2022/04/01 10:26:34;;;;;;;2.90;1.10;;;6.20;62.20;;;;;;4948197;29;20047;-67
2022/04/01 10:29:04;;;;;;;5.30;0.73;;;6.00;62.30;;;;;;4937399;29;20047;-67
2022/04/01 10:31:31;;;;;;;2.10;0.70;;;5.90;62.20;;;;;;4951704;29;20055;-67
2022/04/01 10:34:28;;;;;;;3.63;0.73;;;6.10;62.20;;;;;;4956369;29;20055;-67
2022/04/01 10:37:02;;;;;;;1.88;0.68;;;6.40;61.20;;;;;;4952057;28;20047;-67
2022/04/01 10:39:30;;;;;;;1.33;0.70;;;6.60;60.60;;;;;;4954639;29;20402;-67
2022/04/01 10:42:12;;;;;;;2.58;1.02;;;6.70;60.50;;;;;;4952999;29;20047;-67
2022/04/01 10:44:52;;;;;;;2.10;1.00;;;6.80;60.70;;;;;;4935387;29;20047;-67
2022/04/01 10:51:36;;;;;;;4.05;0.85;;;7.20;60.20;;;;;;4934695;29;20055;-66
2022/04/01 10:53:38;;;;;;;1.45;0.60;;;7.50;58.00;;;;;;4935802;29;20051;-66
2022/04/01 10:56:21;;;;;;;5.95;0.82;;;7.30;58.00;;;;;;4946167;29;20520;-67
2022/04/01 10:59:05;;;;;;;3.45;0.80;;;7.30;57.90;;;;;;4955168;28;20055;-68
2022/04/01 11:01:43;;;;;;;2.67;0.80;;;7.60;57.10;;;;;;4956111;29;20058;-68
2022/04/01 11:04:17;;;;;;;4.55;0.80;;;7.90;57.00;;;;;;4954743;29;20074;-68
2022/04/01 11:07:03;;;;;;;2.10;0.90;;;8.00;55.10;;;;;;4954459;28;20055;-68
2022/04/01 11:09:36;;;;;;;4.53;1.08;;;7.90;54.70;;;;;;4947300;29;20379;-68
2022/04/01 11:12:21;;;;;;;6.22;1.10;;;7.50;54.20;;;;;;4936618;29;20486;-68
2022/04/01 11:14:59;;;;;;;2.65;0.80;;;7.20;54.90;;;;;;4952412;29;20050;-68
2022/04/01 11:17:44;;;;;;;3.00;1.13;;;7.20;55.10;;;;;;4955562;29;20493;-68
2022/04/01 11:20:19;;;;;;;3.47;1.00;;;7.20;55.70;;;;;;4953918;29;20519;-68
2022/04/01 11:22:59;;;;;;;4.25;1.10;;;7.00;56.60;;;;;;4953414;29;20141;-68
2022/04/01 11:25:31;;;;;;;4.93;0.93;;;6.80;57.40;;;;;;4951048;28;20044;-68
2022/04/01 11:28:01;;;;;;;3.57;0.57;;;6.60;57.00;;;;;;4935860;29;20063;-68
2022/04/01 11:30:34;;;;;;;1.55;0.73;;;6.50;57.10;;;;;;4936358;29;20047;-67
2022/04/01 11:33:28;;;;;;;5.00;0.90;;;6.60;57.80;;;;;;4934880;29;20052;-68
2022/04/01 11:35:57;;;;;;;3.58;0.85;;;7.00;57.10;;;;;;4934719;29;20062;-68
2022/04/01 11:38:27;;;;;;;5.07;0.75;;;7.40;56.30;;;;;;4934638;29;20047;-67
2022/04/01 11:40:58;;;;;;;3.88;0.80;;;7.70;55.20;;;;;;4935957;29;20051;-68
2022/04/01 11:43:27;;;;;;;1.65;0.50;;;7.90;54.20;;;;;;4936094;29;20046;-68
2022/04/01 11:46:03;;;;;;;4.82;0.60;;;8.00;52.90;;;;;;4935031;29;20067;-66
2022/04/01 11:48:35;;;;;;;7.22;0.60;;;7.90;52.60;;;;;;4936003;29;20367;-66
2022/04/01 11:51:14;;;;;;;3.33;0.60;;;7.70;52.70;;;;;;4941746;28;20051;-67
2022/04/01 11:53:48;;;;;;;3.00;0.80;;;7.60;52.50;;;;;;4950874;29;20494;-67
2022/04/01 11:56:19;;;;;;;6.22;0.80;;;7.60;52.70;;;;;;4935766;29;20066;-67
2022/04/01 11:58:55;;;;;;;1.85;0.52;;;7.70;52.90;;;;;;4935193;29;20537;-67
2022/04/01 12:01:27;;;;;;;2.25;0.55;;;7.80;52.40;;;;;;4935769;29;20067;-67
2022/04/01 12:04:05;;;;;;;4.68;1.27;;;7.90;51.50;;;;;;4951348;28;20058;-67
2022/04/01 12:09:27;;;;;;;8.20;1.02;;;8.00;52.10;;;;;;4954969;29;20054;-67
2022/04/01 12:11:58;;;;;;;2.00;0.70;;;8.00;52.30;;;;;;4949868;28;20059;-67
2022/04/01 12:14:26;;;;;;;1.52;0.63;;;8.20;52.70;;;;;;4936646;29;20158;-67
2022/04/01 12:16:54;;;;;;;2.80;0.55;;;8.80;51.80;;;;;;4938682;29;20051;-68
2022/04/01 12:19:22;;;;;;;2.40;0.80;;;9.30;50.60;;;;;;4953721;28;20494;-68
2022/04/01 12:21:56;;;;;;;8.45;1.50;;;9.80;49.00;;;;;;4947857;29;20047;-67
2022/04/01 12:24:32;;;;;;;2.13;0.80;;;10.10;48.30;;;;;;4934355;29;20048;-67
2022/04/01 12:27:00;;;;;;;3.25;0.70;;;10.30;47.70;;;;;;4940360;29;20051;-67
2022/04/01 12:29:29;;;;;;;2.85;0.93;;;10.50;46.30;;;;;;4951349;29;20077;-67
2022/04/01 12:32:03;;;;;;;1.30;0.65;;;10.30;45.40;;;;;;4952396;29;20504;-67
2022/04/01 12:34:31;;;;;;;2.47;0.43;;;10.00;45.80;;;;;;4953412;29;20051;-67
2022/04/01 12:37:02;;;;;;;2.25;0.60;;;9.80;46.90;;;;;;4953468;29;20401;-68
2022/04/01 12:39:33;;;;;;;1.33;0.52;;;10.00;47.20;;;;;;4944253;28;20058;-67
2022/04/01 12:42:09;;;;;;;2.20;0.70;;;10.30;47.30;;;;;;4948588;29;20054;-68
2022/04/01 12:44:41;;;;;;;1.20;0.60;;;10.70;46.80;;;;;;4954040;29;20520;-67
2022/04/01 12:47:09;;;;;;;1.90;0.73;;;10.80;45.50;;;;;;4954315;29;20501;-67
2022/04/01 12:49:42;;;;;;;1.60;0.80;;;10.80;45.40;;;;;;4954201;29;20047;-67
2022/04/01 12:52:15;;;;;;;1.63;0.70;;;10.50;45.10;;;;;;4946519;29;20058;-68
2022/04/01 12:54:53;;;;;;;4.18;0.80;;;10.00;45.20;;;;;;4950267;29;20453;-67
2022/04/01 12:57:21;;;;;;;4.28;1.00;;;9.50;46.10;;;;;;4948976;29;20047;-68
2022/04/01 12:59:50;;;;;;;2.90;0.77;;;9.00;47.40;;;;;;4934479;29;20051;-68
2022/04/01 13:02:23;;;;;;;3.45;0.68;;;8.80;48.10;;;;;;4937828;29;20044;-68
2022/04/01 13:04:53;;;;;;;3.25;0.93;;;8.70;48.60;;;;;;4952229;29;20052;-67
2022/04/01 13:07:29;;;;;;;2.70;0.93;;;8.60;49.00;;;;;;4952642;28;20055;-68
2022/04/01 13:10:06;;;;;;;4.40;0.98;;;8.60;48.60;;;;;;4934598;29;20048;-68
2022/04/01 13:12:41;;;;;;;3.65;0.82;;;8.70;49.00;;;;;;4935118;29;20119;-68
2022/04/01 13:15:17;;;;;;;3.17;0.80;;;9.50;49.10;;;;;;4934905;29;20055;-68
2022/04/01 13:17:44;;;;;;;3.35;0.70;;;10.80;47.00;;;;;;4934401;29;20060;-68
2022/04/01 13:20:15;;;;;;;2.53;0.60;;;11.70;45.80;;;;;;4934909;29;20043;-68
2022/04/01 13:22:43;;;;;;;2.75;0.60;;;12.30;43.20;;;;;;4935792;29;20055;-68
2022/04/01 13:25:12;;;;;;;2.72;0.90;;;12.50;41.30;;;;;;4954095;29;20055;-68
2022/04/01 13:27:41;;;;;;;2.00;1.00;;;12.00;40.50;;;;;;4936245;29;20051;-68
2022/04/01 13:30:10;;;;;;;4.60;0.70;;;11.30;41.10;;;;;;4953756;28;20397;-68
2022/04/01 13:32:38;;;;;;;2.58;0.88;;;10.60;42.70;;;;;;4957663;29;20055;-67
2022/04/01 13:35:07;;;;;;;2.17;0.80;;;10.20;43.60;;;;;;4957581;29;20051;-67
2022/04/01 13:37:36;;;;;;;2.78;0.90;;;9.90;44.30;;;;;;4957058;29;20059;-68
2022/04/01 13:40:07;;;;;;;3.35;1.08;;;9.80;45.40;;;;;;4957601;29;20055;-68